Historyczne dane pomiarowe

Dodano dane terminowe – wersja testowa.

Dane z okresu 1951-2019

Wersja bazy: 1.34 [2019-03-16, lista zmian], aktualizacja planowana na 2019-04-15

Dane meteo z obszaru Polski uzyskane na podstawie danych udostępnionych przez Instytut Meteorologii i Gospodarki Wodnej – Państwowy Instytut Badawczy.

 

Wybierz Datę:    

       

TemperaturaWilgotnośćWiatrCiśnienieOpadyŚniegCzas trwania zjawisk
 Stacja t tx tn tng RH VA  wxwx mslp ppp RRR   cm mm wxwxwxwxwxwxwx
1956-11-09 -3.9 0.3 -6.2- 78.3- 5.3 0.3---- 0.0------------
1956-11-08 -2.4 1.2 -4.8- 76.5- 2.0 2.7---- 0.0------------
1956-11-07 -1.2 3.3 -3.2- 81.0- 2.7 6.3---- 0.1------------
1956-11-06 1.0 4.0 0.5- 78.5- 3.7 6.3---- 0.0------------
1956-11-05 2.4 5.9 -1.9- 86.5- 8.0 5.0---- 0.6------------
1956-11-04 0.1 5.0 -2.2- 80.3- 0.0 0.7---- 0.0------------
1956-11-03 0.4 3.0 -1.2- 88.3- 8.0 0.3---- 0.0------------
1956-11-02 0.6 3.8 -0.9- 87.5- 2.7 0.3---- 0.0-- 1---------
1956-11-01 -0.8 1.2 -5.8- 72.3- 8.0 8.7---- 0.7------------
1956-10-31 -4.6 -1.5 -8.4- 77.8- 2.7 1.0---- 0.0------------
1956-10-30 -1.1 5.9 -3.7- 84.5- 8.0 3.0---- 0.0------------
1956-10-29 5.2 10.5 3.6- 87.8- 7.3 3.7---- 0.0------------
1956-10-28 9.4 10.3 8.6- 99.0- 8.0 3.0---- 8.3------------
1956-10-27 9.4 12.0 7.6- 94.3- 8.0 3.0---- 2.2------------
1956-10-26 8.0 11.0 5.4- 97.3- 8.0 0.7---- 1.5------------
1956-10-25 10.5 16.0 5.3- 87.5- 3.0 2.3---- 0.0------------
1956-10-24 10.9 13.2 6.7- 88.5- 5.3 4.3---- 0.0------------
1956-10-23 9.6 11.3 8.7- 87.0- 8.0 2.7---- 0.0------------
1956-10-22 10.4 13.0 9.9- 93.0- 8.0 3.3---- 0.0------------
1956-10-21 11.8 14.8 8.8- 94.3- 1.3 3.3---- 0.0------------
1956-10-20 9.6 12.0 5.9- 92.0- 8.0 3.7---- 0.0------------
1956-10-19 10.1 13.0 8.8- 96.0- 8.0 4.7---- 1.1------------
1956-10-18 9.3 12.5 1.9- 94.0- 8.0 1.3---- 1.2------------
1956-10-17 6.3 13.2 3.5- 86.5- 0.0 1.3---- 0.0------------
1956-10-16 7.2 10.5 3.1- 85.0- 8.0 2.3---- 0.0------------
1956-10-15 6.4 12.0 1.9- 85.0- 1.3 7.7---- 0.0------------
1956-10-14 7.6 12.0 6.1- 77.8- 1.7 7.7---- 0.0------------
1956-10-13 10.2 12.5 8.2- 79.5- 8.0 12.7---- 6.3------------
1956-10-12 9.4 11.5 8.5- 87.5- 5.3 5.7---- 0.0------------
1956-10-11 8.2 11.5 5.1- 82.8- 8.0 7.7---- 0.0------------
1956-10-10 5.4 10.2 0.4- 79.5- 4.0 3.7---- 0.0------------
1956-10-09 6.2 8.8 1.6- 92.0- 5.3 5.0---- 0.7------------
1956-10-08 4.8 8.8 3.0- 89.8- 5.3 4.3---- 0.0------------
1956-10-07 7.0 8.2 4.3- 86.3- 8.0 13.0---- 2.2------------
1956-10-06 7.8 10.0 7.1- 99.0- 8.0 3.0---- 47.5------------
1956-10-05 10.4 15.5 9.1- 87.3- 6.3 2.3---- 1.4------------
1956-10-04 9.4 12.0 6.1- 96.8- 8.0 2.3---- 0.7------------
1956-10-03 14.1 18.8 11.4- 81.0- 5.3 6.3---- 0.0------------
1956-10-02 17.4 25.3 9.7- 73.5- 4.0 3.0---- 0.0------------
1956-10-01 15.0 22.6 5.6- 84.0- 1.3 4.3---- 0.0------------
1956-09-30 11.4 16.6 10.1- 92.3- 4.7 4.7---- 0.0------------
1956-09-29 16.2 20.3 12.1- 85.0- 8.0 5.7---- 0.4------------
1956-09-28 14.0 18.7 10.7- 86.5- 5.3 4.3---- 0.3------------
1956-09-27 15.4 24.0 6.7- 75.0- 1.7 2.0---- 0.0------------
1956-09-26 12.1 21.8 5.6- 84.0- 2.7 1.0---- 0.0------------
1956-09-25 9.4 18.0 1.4- 85.3- 0.0 2.0---- 0.0------------
1956-09-24 7.2 15.2 2.4- 74.8- 0.0 2.0---- 0.0------------
1956-09-23 10.0 16.5 6.1- 80.5- 2.7 2.3---- 0.0------------
1956-09-22 11.8 20.0 5.5- 81.8- 0.0 1.0---- 0.0------------
1956-09-21 11.1 19.6 5.7- 79.3- 0.0 0.7---- 0.0------------
1956-09-20 10.7 17.6 3.7- 78.8- 5.7 0.7---- 0.0------------
1956-09-19 9.1 17.5 3.7- 81.0- 1.3 0.7---- 0.0------------
1956-09-18 8.8 14.5 5.6- 82.3- 4.7 2.0---- 0.0------------
1956-09-17 9.8 14.9 8.0- 74.0- 3.3 6.3---- 0.0------------
1956-09-16 10.3 13.5 6.7- 83.0- 7.3 6.3---- 0.0------------
1956-09-15 10.5 14.6 7.2- 85.8- 6.3 5.7---- 0.0------------
1956-09-14 10.9 17.0 7.5- 82.3- 3.0 2.7---- 0.0------------
1956-09-13 9.6 15.0 7.6- 88.0- 3.7 3.0---- 1.2------------
1956-09-12 10.8 15.0 9.2- 94.3- 6.0 3.7---- 12.4------------
1956-09-11 13.5 15.0 12.8- 97.8- 8.0 1.3---- 4.3------------
2187.8 ms

 

Źródłem pochodzenia danych jest Instytut Meteorologii i Gospodarki Wodnej – Państwowy Instytut Badawczy. Dane Instytutu Meteorologii i Gospodarki Wodnej – Państwowego Instytutu Badawczego zostały przetworzone.

Dane źródłowe można odnaleźć na stronie https://dane.imgw.pl